createdAt,value
2023-03-21T00:00:41.861Z,6.03
2023-03-21T00:03:09.288Z,6.05
2023-03-21T00:05:43.119Z,6.01
2023-03-21T00:08:12.756Z,6.04
2023-03-21T00:10:43.530Z,6.02
2023-03-21T00:13:13.357Z,6.04
2023-03-21T00:16:04.449Z,6.03
2023-03-21T00:18:36.901Z,6.06
2023-03-21T00:21:37.741Z,5.91
2023-03-21T00:23:52.469Z,5.99
2023-03-21T00:26:19.821Z,6.11
2023-03-21T00:28:47.198Z,5.85
2023-03-21T00:31:14.554Z,5.99
2023-03-21T00:33:42.955Z,6.07
2023-03-21T00:36:10.662Z,6.01
2023-03-21T00:38:38.053Z,5.93
2023-03-21T00:41:21.024Z,5.95
2023-03-21T00:43:55.683Z,6.07
2023-03-21T00:46:25.250Z,5.99
2023-03-21T00:48:53.676Z,5.99
2023-03-21T00:51:26.421Z,6.05
2023-03-21T00:53:57.687Z,6.12
2023-03-21T00:56:28.173Z,6.16
2023-03-21T00:58:55.491Z,6.08
2023-03-21T01:01:22.797Z,6.14
2023-03-21T01:03:51.202Z,6.04
2023-03-21T01:06:22.412Z,5.93
2023-03-21T01:08:52.981Z,6.07
2023-03-21T01:11:23.020Z,5.94
2023-03-21T01:13:56.026Z,6.09
2023-03-21T01:16:25.499Z,6.02
2023-03-21T01:18:53.193Z,6.10
2023-03-21T01:21:20.813Z,6.18
2023-03-21T01:23:48.228Z,6.06
2023-03-21T01:26:15.782Z,5.93
2023-03-21T01:28:44.864Z,5.92
2023-03-21T01:31:13.562Z,6.10
2023-03-21T01:33:41.019Z,6.11
2023-03-21T01:36:25.861Z,5.99
2023-03-21T01:38:58.026Z,6.13
2023-03-21T01:41:36.698Z,5.99
2023-03-21T01:44:17.330Z,6.12
2023-03-21T01:47:11.346Z,6.09
2023-03-21T01:49:47.951Z,6.18
2023-03-21T01:52:39.734Z,6.14
2023-03-21T01:55:27.404Z,6.17
2023-03-21T01:58:06.016Z,6.09
2023-03-21T02:00:52.444Z,6.16
2023-03-21T02:03:50.547Z,6.19
2023-03-21T02:06:36.835Z,5.90
2023-03-21T02:09:24.268Z,5.97
2023-03-21T02:11:52.951Z,5.99
2023-03-21T02:14:28.893Z,6.03
2023-03-21T02:17:23.509Z,6.16
2023-03-21T02:19:53.826Z,6.08
2023-03-21T02:22:35.483Z,6.11
2023-03-21T02:25:31.752Z,6.03
2023-03-21T02:27:59.264Z,6.17
2023-03-21T02:30:45.498Z,6.06
2023-03-21T02:33:55.729Z,6.12
2023-03-21T02:37:03.144Z,6.04
2023-03-21T02:40:09.384Z,6.20
2023-03-21T02:43:14.135Z,6.27
2023-03-21T02:46:02.821Z,6.14
2023-03-21T02:48:44.499Z,6.17
2023-03-21T02:51:18.322Z,6.13
2023-03-21T02:53:51.704Z,6.22
2023-03-21T02:56:23.012Z,6.16
2023-03-21T02:58:54.736Z,6.24
2023-03-21T03:01:22.196Z,6.23
2023-03-21T03:03:49.680Z,6.15
2023-03-21T03:06:19.920Z,6.11
2023-03-21T03:09:02.984Z,6.10
2023-03-21T03:11:39.603Z,6.18
2023-03-21T03:14:37.006Z,5.97
2023-03-21T03:17:15.643Z,6.17
2023-03-21T03:20:18.581Z,6.21
2023-03-21T03:22:58.538Z,6.16
2023-03-21T03:25:47.884Z,6.12
2023-03-21T03:28:19.262Z,6.06
2023-03-21T03:31:05.097Z,6.10
2023-03-21T03:33:38.099Z,5.90
2023-03-21T03:36:07.138Z,5.94
2023-03-21T03:38:36.960Z,5.89
2023-03-21T03:41:12.828Z,5.96
2023-03-21T03:43:51.039Z,6.01
2023-03-21T03:46:22.654Z,6.06
2023-03-21T03:48:54.588Z,6.13
2023-03-21T03:51:32.729Z,6.09
2023-03-21T03:54:14.797Z,6.12
2023-03-21T03:56:43.222Z,6.19
2023-03-21T03:59:10.603Z,6.12
2023-03-21T04:01:56.463Z,6.22
2023-03-21T04:04:28.759Z,6.15
2023-03-21T04:06:58.009Z,6.29
2023-03-21T04:09:42.724Z,6.27
2023-03-21T04:12:12.990Z,6.18
2023-03-21T04:14:46.153Z,6.29
2023-03-21T04:17:16.309Z,6.37
2023-03-21T04:19:43.708Z,6.46
2023-03-21T04:22:12.398Z,6.46
2023-03-21T04:24:43.650Z,6.55
2023-03-21T04:27:11.109Z,6.43
2023-03-21T04:29:42.870Z,6.45
2023-03-21T04:32:28.574Z,6.50
2023-03-21T04:35:07.004Z,6.54
2023-03-21T04:37:34.978Z,6.33
2023-03-21T04:40:07.626Z,6.51
2023-03-21T04:42:35.289Z,6.50
2023-03-21T04:45:02.826Z,6.34
2023-03-21T04:47:30.229Z,6.42
2023-03-21T04:49:57.775Z,6.64
2023-03-21T04:52:25.540Z,6.49
2023-03-21T04:54:53.022Z,6.41
2023-03-21T04:57:20.871Z,6.50
2023-03-21T04:59:49.043Z,6.38
2023-03-21T05:02:16.398Z,6.56
2023-03-21T05:04:43.975Z,6.60
2023-03-21T05:07:11.260Z,6.65
2023-03-21T05:09:38.731Z,6.63
2023-03-21T05:12:06.268Z,6.63
2023-03-21T05:14:35.272Z,6.69
2023-03-21T05:17:05.520Z,6.72
2023-03-21T05:19:40.568Z,6.79
2023-03-21T05:22:09.349Z,6.67
2023-03-21T05:24:39.294Z,6.94
2023-03-21T05:27:08.811Z,6.86
2023-03-21T05:29:42.886Z,6.81
2023-03-21T05:32:11.311Z,6.98
2023-03-21T05:34:39.383Z,6.93
2023-03-21T05:37:07.055Z,6.89
2023-03-21T05:39:44.077Z,7.02
2023-03-21T05:42:18.750Z,7.02
2023-03-21T05:44:46.960Z,6.95
2023-03-21T05:47:15.915Z,7.09
2023-03-21T05:49:47.243Z,7.17
2023-03-21T05:52:16.015Z,7.12
2023-03-21T05:54:43.388Z,7.28
2023-03-21T05:57:11.046Z,7.33
2023-03-21T05:59:58.023Z,7.53
2023-03-21T06:02:25.566Z,7.56
2023-03-21T06:04:54.941Z,7.52
2023-03-21T06:07:22.370Z,7.74
2023-03-21T06:09:50.557Z,7.82
2023-03-21T06:12:18.106Z,7.94
2023-03-21T06:15:05.673Z,8.05
2023-03-21T06:17:41.054Z,8.02
2023-03-21T06:20:16.983Z,8.22
2023-03-21T06:22:49.351Z,8.18
2023-03-21T06:25:16.860Z,8.39
2023-03-21T06:27:44.718Z,8.48
2023-03-21T06:30:12.661Z,8.51
2023-03-21T06:32:48.724Z,8.50
2023-03-21T06:35:18.389Z,8.69
2023-03-21T06:37:46.179Z,8.80
2023-03-21T06:40:13.993Z,8.90
2023-03-21T06:42:41.654Z,8.94
2023-03-21T06:45:12.351Z,9.01
2023-03-21T06:47:39.956Z,9.16
2023-03-21T06:50:14.279Z,9.26
2023-03-21T06:52:44.178Z,9.29
2023-03-21T06:55:13.012Z,9.31
2023-03-21T06:57:40.746Z,9.39
2023-03-21T07:00:09.822Z,9.35
2023-03-21T07:02:42.166Z,9.41
2023-03-21T07:05:14.574Z,9.51
2023-03-21T07:07:42.738Z,9.80
2023-03-21T07:10:10.759Z,9.97
2023-03-21T07:12:53.927Z,9.84
2023-03-21T07:15:24.579Z,9.96
2023-03-21T07:17:52.607Z,10.18
2023-03-21T07:20:20.033Z,10.59
2023-03-21T07:22:47.486Z,10.86
2023-03-21T07:25:17.377Z,11.13
2023-03-21T07:27:44.821Z,11.45
2023-03-21T07:30:12.464Z,11.88
2023-03-21T07:32:39.841Z,12.13
2023-03-21T07:35:08.209Z,12.30
2023-03-21T07:37:38.002Z,12.53
2023-03-21T07:40:10.591Z,12.63
2023-03-21T07:42:39.910Z,12.61
2023-03-21T07:45:09.383Z,12.71
2023-03-21T07:47:36.770Z,12.88
2023-03-21T07:50:04.666Z,12.86
2023-03-21T07:52:32.122Z,12.89
2023-03-21T07:54:59.445Z,12.76
2023-03-21T07:57:26.760Z,12.87
2023-03-21T07:59:54.041Z,12.90
2023-03-21T08:02:21.614Z,12.88
2023-03-21T08:04:49.029Z,12.87
2023-03-21T08:07:16.301Z,12.85
2023-03-21T08:09:43.972Z,12.95
2023-03-21T08:12:11.336Z,13.05
2023-03-21T08:14:38.674Z,13.16
2023-03-21T08:17:06.285Z,13.16
2023-03-21T08:19:33.588Z,13.35
2023-03-21T08:22:01.288Z,13.45
2023-03-21T08:24:28.808Z,13.28
2023-03-21T08:26:56.182Z,13.00
2023-03-21T08:29:25.154Z,13.17
2023-03-21T08:31:52.543Z,13.40
2023-03-21T08:34:19.876Z,13.51
2023-03-21T08:36:47.168Z,13.30
2023-03-21T08:39:14.416Z,13.28
2023-03-21T08:41:41.773Z,13.40
2023-03-21T08:44:10.638Z,13.51
2023-03-21T08:46:38.013Z,13.55
2023-03-21T08:49:05.472Z,13.55
2023-03-21T08:51:33.710Z,13.57
2023-03-21T08:54:00.966Z,13.57
2023-03-21T08:56:28.267Z,13.59
2023-03-21T08:58:55.583Z,13.59
2023-03-21T09:01:22.984Z,13.84
2023-03-21T09:03:50.315Z,13.97
2023-03-21T09:06:17.655Z,14.15
2023-03-21T09:08:46.400Z,14.41
2023-03-21T09:11:13.833Z,14.41
2023-03-21T09:13:41.166Z,14.48
2023-03-21T09:16:08.742Z,14.74
2023-03-21T09:18:45.383Z,14.99
2023-03-21T09:21:14.630Z,15.21
2023-03-21T09:23:41.987Z,15.29
2023-03-21T09:26:09.799Z,15.53
2023-03-21T09:28:40.625Z,15.51
2023-03-21T09:31:11.387Z,15.66
2023-03-21T09:33:40.764Z,15.34
2023-03-21T09:36:14.200Z,15.06
2023-03-21T09:38:45.011Z,14.94
2023-03-21T09:41:24.365Z,14.87
2023-03-21T09:44:22.900Z,14.67
2023-03-21T09:47:25.351Z,14.85
2023-03-21T09:50:12.968Z,14.89
2023-03-21T09:52:58.741Z,14.79
2023-03-21T09:55:37.821Z,14.74
2023-03-21T09:58:27.140Z,14.76
2023-03-21T10:01:02.552Z,14.79
2023-03-21T10:03:31.590Z,14.71
2023-03-21T10:06:01.251Z,14.75
2023-03-21T10:08:32.117Z,14.54
2023-03-21T10:11:02.294Z,14.48
2023-03-21T10:13:32.414Z,14.64
2023-03-21T10:16:11.564Z,14.64
2023-03-21T10:18:38.863Z,14.72
2023-03-21T10:21:06.406Z,14.67
2023-03-21T10:23:33.720Z,14.81
2023-03-21T10:26:02.312Z,14.81
2023-03-21T10:28:39.403Z,14.70
2023-03-21T10:31:16.361Z,14.76
2023-03-21T10:33:44.889Z,14.75
2023-03-21T10:36:17.765Z,14.86
2023-03-21T10:38:48.028Z,14.96
2023-03-21T10:41:15.979Z,14.88
2023-03-21T10:43:45.391Z,14.97
2023-03-21T10:46:21.813Z,15.06
2023-03-21T10:48:53.372Z,15.22
2023-03-21T10:51:22.788Z,15.16
2023-03-21T10:53:52.143Z,15.16
2023-03-21T10:56:19.442Z,15.50
2023-03-21T10:58:47.065Z,15.62
2023-03-21T11:01:50.223Z,15.55
2023-03-21T11:04:19.799Z,15.63
2023-03-21T11:06:55.121Z,15.62
2023-03-21T11:09:25.047Z,15.72
2023-03-21T11:11:52.518Z,15.97
2023-03-21T11:14:34.194Z,15.89
2023-03-21T11:17:01.913Z,15.95
2023-03-21T11:19:32.240Z,15.87
2023-03-21T11:22:03.909Z,15.75
2023-03-21T11:24:31.211Z,16.19
2023-03-21T11:26:59.058Z,16.20
2023-03-21T11:29:29.689Z,16.05
2023-03-21T11:32:02.387Z,16.05
2023-03-21T11:34:38.036Z,16.18
2023-03-21T11:37:05.366Z,16.11
2023-03-21T11:39:32.659Z,16.41
2023-03-21T11:42:00.150Z,16.42
2023-03-21T11:44:28.610Z,16.55
2023-03-21T11:46:55.870Z,16.53
2023-03-21T11:49:23.386Z,16.47
2023-03-21T11:52:14.316Z,16.27
2023-03-21T11:55:21.033Z,16.67
2023-03-21T11:58:14.664Z,17.06
2023-03-21T12:00:45.580Z,17.13
2023-03-21T12:03:30.751Z,17.37
2023-03-21T12:06:03.418Z,17.56
2023-03-21T12:08:39.757Z,17.57
2023-03-21T12:11:20.447Z,17.41
2023-03-21T12:14:07.291Z,17.42
2023-03-21T12:16:43.570Z,17.72
2023-03-21T12:19:29.657Z,17.93
2023-03-21T12:22:06.121Z,17.78
2023-03-21T12:24:51.052Z,17.86
2023-03-21T12:27:21.365Z,17.67
2023-03-21T12:30:10.509Z,18.27
2023-03-21T12:32:49.698Z,18.18
2023-03-21T12:35:29.193Z,18.08
2023-03-21T12:38:21.233Z,18.17
2023-03-21T12:41:16.535Z,17.88
2023-03-21T12:43:55.245Z,17.82
2023-03-21T12:46:40.449Z,17.35
2023-03-21T12:49:29.285Z,17.24
2023-03-21T12:51:59.820Z,17.16
2023-03-21T12:54:38.102Z,17.06
2023-03-21T12:57:16.027Z,17.15
2023-03-21T13:00:01.478Z,16.77
2023-03-21T13:03:33.578Z,16.56
2023-03-21T13:06:31.554Z,16.69
2023-03-21T13:09:16.040Z,16.69
2023-03-21T13:12:20.633Z,16.71
2023-03-21T13:15:07.875Z,16.46
2023-03-21T13:17:45.926Z,16.30
2023-03-21T13:20:58.095Z,16.39
2023-03-21T13:24:25.040Z,16.24
2023-03-21T13:27:08.176Z,16.45
2023-03-21T13:29:49.836Z,16.26
2023-03-21T13:32:41.578Z,16.09
2023-03-21T13:35:29.444Z,16.35
2023-03-21T13:37:58.590Z,16.50
2023-03-21T13:40:53.398Z,16.53
2023-03-21T13:43:32.093Z,16.53
2023-03-21T13:46:10.169Z,16.43
2023-03-21T13:49:06.825Z,16.39
2023-03-21T13:51:39.879Z,16.60
2023-03-21T13:54:07.109Z,16.67
2023-03-21T13:56:46.723Z,16.83
2023-03-21T13:59:23.921Z,16.87
2023-03-21T14:02:28.550Z,16.89
2023-03-21T14:05:07.540Z,17.04
2023-03-21T14:07:41.963Z,17.05
2023-03-21T14:10:19.139Z,17.03
2023-03-21T14:12:46.582Z,17.05
2023-03-21T14:15:21.109Z,17.15
2023-03-21T14:18:35.041Z,17.23
2023-03-21T14:21:05.057Z,17.20
2023-03-21T14:23:32.536Z,17.15
2023-03-21T14:25:59.809Z,16.81
2023-03-21T14:28:29.559Z,16.00
2023-03-21T14:31:00.102Z,15.78
2023-03-21T14:33:36.869Z,15.79
2023-03-21T14:36:11.789Z,15.44
2023-03-21T14:38:39.562Z,15.35
2023-03-21T14:41:19.127Z,15.35
2023-03-21T14:44:09.033Z,15.46
2023-03-21T14:46:36.379Z,15.41
2023-03-21T14:49:33.782Z,15.41
2023-03-21T14:52:04.018Z,16.23
2023-03-21T14:54:32.388Z,16.44
2023-03-21T14:57:04.954Z,15.89
2023-03-21T14:59:35.569Z,15.16
2023-03-21T15:02:15.627Z,15.12
2023-03-21T15:04:48.414Z,15.30
2023-03-21T15:07:32.629Z,15.87
2023-03-21T15:10:08.066Z,15.83
2023-03-21T15:12:35.527Z,16.15
2023-03-21T15:15:03.260Z,15.15
2023-03-21T15:17:30.643Z,15.03
2023-03-21T15:19:58.006Z,14.90
2023-03-21T15:22:34.004Z,15.26
2023-03-21T15:25:04.390Z,14.98
2023-03-21T15:27:33.286Z,14.77
2023-03-21T15:30:00.644Z,14.70
2023-03-21T15:32:28.328Z,15.05
2023-03-21T15:34:56.690Z,14.88
2023-03-21T15:37:26.541Z,14.50
2023-03-21T15:39:55.524Z,14.43
2023-03-21T15:42:23.855Z,14.33
2023-03-21T15:44:53.262Z,14.39
2023-03-21T15:47:40.786Z,14.48
2023-03-21T15:50:17.414Z,14.36
2023-03-21T15:52:44.651Z,14.44
2023-03-21T15:55:27.993Z,14.37
2023-03-21T15:58:00.053Z,14.29
2023-03-21T16:00:40.926Z,14.28
2023-03-21T16:03:25.952Z,14.23
2023-03-21T16:06:15.485Z,14.06
2023-03-21T16:08:49.236Z,13.87
2023-03-21T16:11:28.376Z,13.84
2023-03-21T16:13:56.250Z,13.62
2023-03-21T16:16:25.154Z,13.42
2023-03-21T16:18:52.925Z,13.32
2023-03-21T16:21:22.132Z,13.20
2023-03-21T16:23:49.557Z,13.32
2023-03-21T16:26:17.982Z,13.23
2023-03-21T16:28:45.422Z,13.31
2023-03-21T16:31:17.394Z,13.11
2023-03-21T16:33:45.698Z,13.08
2023-03-21T16:36:20.353Z,12.99
2023-03-21T16:38:49.683Z,12.96
2023-03-21T16:41:17.151Z,12.79
2023-03-21T16:43:44.686Z,12.85
2023-03-21T16:46:12.722Z,12.66
2023-03-21T16:48:40.936Z,12.64
2023-03-21T16:53:49.420Z,12.39
2023-03-21T16:56:21.972Z,12.31
2023-03-21T16:58:49.322Z,12.21
2023-03-21T17:01:19.345Z,12.07
2023-03-21T17:03:47.558Z,12.02
2023-03-21T17:06:16.168Z,11.83
2023-03-21T17:08:43.950Z,11.71
2023-03-21T17:11:12.247Z,11.64
2023-03-21T17:13:39.595Z,11.61
2023-03-21T17:16:07.231Z,11.63
2023-03-21T17:18:34.528Z,11.70
2023-03-21T17:21:01.806Z,11.74
2023-03-21T17:23:29.153Z,11.62
2023-03-21T17:25:56.508Z,11.41
2023-03-21T17:28:23.821Z,11.39
2023-03-21T17:30:51.162Z,11.30
2023-03-21T17:33:18.488Z,11.22
2023-03-21T17:35:46.070Z,11.30
2023-03-21T17:38:16.935Z,11.19
2023-03-21T17:40:44.380Z,11.13
2023-03-21T17:43:15.545Z,11.07
2023-03-21T17:45:42.864Z,11.10
2023-03-21T17:48:10.298Z,10.95
2023-03-21T17:50:39.397Z,10.81
2023-03-21T17:53:07.124Z,10.79
2023-03-21T17:55:34.651Z,10.87
2023-03-21T17:58:02.028Z,10.74
2023-03-21T18:00:30.434Z,10.84
2023-03-21T18:02:57.811Z,10.70
2023-03-21T18:05:25.462Z,10.72
2023-03-21T18:08:11.355Z,10.65
2023-03-21T18:10:40.136Z,10.52
2023-03-21T18:13:07.585Z,10.47
2023-03-21T18:15:37.542Z,10.34
2023-03-21T18:18:05.424Z,10.24
2023-03-21T18:23:20.961Z,10.09
2023-03-21T18:25:48.536Z,9.98
2023-03-21T18:28:19.440Z,9.92
2023-03-21T18:33:40.537Z,9.89
2023-03-21T18:36:09.110Z,9.74
2023-03-21T18:38:37.130Z,9.60
2023-03-21T18:41:05.556Z,9.54
2023-03-21T18:46:20.491Z,9.42
2023-03-21T18:48:48.038Z,9.47
2023-03-21T18:51:17.687Z,9.31
2023-03-21T18:53:45.737Z,9.24
2023-03-21T18:56:36.901Z,9.27
2023-03-21T18:59:01.210Z,9.24
2023-03-21T19:01:28.758Z,9.24
2023-03-21T19:04:20.442Z,9.17
2023-03-21T19:06:47.502Z,9.00
2023-03-21T19:09:14.999Z,9.04
2023-03-21T19:11:42.735Z,8.90
2023-03-21T19:14:11.603Z,8.82
2023-03-21T19:17:06.398Z,8.83
2023-03-21T19:19:26.541Z,8.67
2023-03-21T19:21:54.273Z,8.78
2023-03-21T19:24:27.594Z,8.80
2023-03-21T19:26:55.990Z,8.82
2023-03-21T19:29:23.293Z,8.74
2023-03-21T19:31:51.645Z,8.64
2023-03-21T19:34:19.078Z,8.64
2023-03-21T19:36:51.403Z,8.63
2023-03-21T19:39:22.447Z,8.63
2023-03-21T19:41:58.880Z,8.37
2023-03-21T19:44:35.443Z,8.30
2023-03-21T19:47:02.997Z,8.30
2023-03-21T19:49:48.867Z,8.25
2023-03-21T19:52:20.495Z,8.22
2023-03-21T19:54:47.865Z,8.16
2023-03-21T19:57:16.014Z,7.95
2023-03-21T19:59:43.314Z,7.89
2023-03-21T20:02:34.022Z,8.06
2023-03-21T20:04:58.688Z,7.98
2023-03-21T20:07:26.098Z,7.93
2023-03-21T20:09:55.970Z,8.00
2023-03-21T20:12:24.546Z,7.97
2023-03-21T20:14:58.039Z,7.94
2023-03-21T20:17:31.918Z,7.97
2023-03-21T20:20:00.058Z,7.87
2023-03-21T20:22:53.624Z,7.91
2023-03-21T20:25:15.609Z,7.91
2023-03-21T20:27:43.464Z,7.90
2023-03-21T20:30:14.287Z,7.81
2023-03-21T20:32:42.820Z,7.81
2023-03-21T20:35:20.773Z,7.77
2023-03-21T20:37:52.948Z,7.79
2023-03-21T20:40:20.389Z,7.76
2023-03-21T20:42:48.942Z,7.62
2023-03-21T20:45:16.799Z,7.46
2023-03-21T20:47:44.150Z,7.46
2023-03-21T20:50:13.705Z,7.38
2023-03-21T20:53:06.305Z,7.30
2023-03-21T20:55:29.718Z,7.21
2023-03-21T20:57:57.021Z,7.28
2023-03-21T21:00:24.623Z,7.26
2023-03-21T21:02:52.021Z,7.15
2023-03-21T21:05:35.433Z,7.19
2023-03-21T21:08:03.758Z,7.36
2023-03-21T21:10:37.875Z,7.22
2023-03-21T21:13:17.748Z,7.27
2023-03-21T21:15:45.752Z,7.32
2023-03-21T21:18:13.431Z,7.33
2023-03-21T21:20:41.650Z,7.27
2023-03-21T21:23:09.861Z,7.09
2023-03-21T21:25:37.385Z,6.95
2023-03-21T21:28:09.291Z,6.94
2023-03-21T21:30:38.521Z,6.87
2023-03-21T21:33:06.049Z,7.25
2023-03-21T21:35:33.684Z,7.22
2023-03-21T21:38:01.344Z,7.25
2023-03-21T21:40:29.637Z,7.13
2023-03-21T21:43:03.275Z,7.13
2023-03-21T21:45:30.775Z,7.18
2023-03-21T21:47:58.140Z,7.19
2023-03-21T21:50:25.479Z,7.24
2023-03-21T21:52:54.650Z,7.22
2023-03-21T21:55:22.165Z,7.35
2023-03-21T21:57:53.158Z,7.46
2023-03-21T22:00:20.662Z,7.56
2023-03-21T22:02:48.045Z,7.67
2023-03-21T22:05:16.312Z,7.56
2023-03-21T22:07:43.662Z,7.66
2023-03-21T22:10:11.148Z,7.65
2023-03-21T22:12:38.440Z,7.52
2023-03-21T22:15:07.274Z,7.70
2023-03-21T22:17:35.253Z,7.61
2023-03-21T22:20:06.531Z,7.46
2023-03-21T22:22:34.688Z,7.61
2023-03-21T22:25:03.226Z,7.57
2023-03-21T22:27:30.690Z,7.61
2023-03-21T22:29:58.027Z,7.68
2023-03-21T22:32:25.631Z,7.66
2023-03-21T22:34:52.922Z,7.66
2023-03-21T22:37:20.364Z,7.73
2023-03-21T22:39:47.655Z,7.65
2023-03-21T22:42:15.027Z,7.56
2023-03-21T22:44:42.261Z,7.49
2023-03-21T22:47:10.644Z,7.44
2023-03-21T22:49:38.495Z,7.34
2023-03-21T22:52:06.408Z,7.19
2023-03-21T22:54:33.856Z,7.12
2023-03-21T22:57:01.191Z,7.11
2023-03-21T22:59:28.510Z,7.32
2023-03-21T23:01:56.638Z,7.25
2023-03-21T23:04:25.011Z,7.19
2023-03-21T23:06:52.430Z,7.23
2023-03-21T23:09:19.892Z,7.17
2023-03-21T23:11:49.633Z,7.14
2023-03-21T23:14:17.571Z,6.92
2023-03-21T23:16:45.112Z,6.90
2023-03-21T23:19:12.494Z,6.92
2023-03-21T23:21:39.821Z,6.85
2023-03-21T23:24:07.647Z,6.80
2023-03-21T23:26:35.183Z,7.13
2023-03-21T23:29:03.004Z,7.01
2023-03-21T23:31:32.929Z,7.02
2023-03-21T23:34:00.703Z,7.06
2023-03-21T23:36:28.179Z,6.94
2023-03-21T23:38:55.508Z,6.92
2023-03-21T23:41:24.162Z,6.78
2023-03-21T23:43:51.601Z,6.74
2023-03-21T23:46:19.065Z,6.77
2023-03-21T23:48:46.701Z,6.95
2023-03-21T23:51:16.077Z,6.90
2023-03-21T23:53:44.947Z,6.93
2023-03-21T23:56:15.112Z,6.96
2023-03-21T23:58:42.442Z,6.87
